createdAt,value
2023-02-02T00:02:04.598Z,4.93
2023-02-02T00:04:39.897Z,4.97
2023-02-02T00:07:10.185Z,4.98
2023-02-02T00:09:40.239Z,4.99
2023-02-02T00:12:10.428Z,4.95
2023-02-02T00:14:41.069Z,4.98
2023-02-02T00:17:13.662Z,4.98
2023-02-02T00:19:46.910Z,4.95
2023-02-02T00:22:17.389Z,4.89
2023-02-02T00:24:47.605Z,5.00
2023-02-02T00:27:17.863Z,5.00
2023-02-02T00:29:48.209Z,5.01
2023-02-02T00:32:18.351Z,5.04
2023-02-02T00:34:51.373Z,4.96
2023-02-02T00:37:21.624Z,5.08
2023-02-02T00:39:52.027Z,5.07
2023-02-02T00:42:22.002Z,5.06
2023-02-02T00:45:04.427Z,5.07
2023-02-02T00:47:34.498Z,4.85
2023-02-02T00:50:08.018Z,5.03
2023-02-02T00:52:38.181Z,5.00
2023-02-02T00:55:11.972Z,4.94
2023-02-02T00:57:44.463Z,4.97
2023-02-02T01:00:17.644Z,4.89
2023-02-02T01:02:48.702Z,4.67
2023-02-02T01:05:23.564Z,4.87
2023-02-02T01:07:53.860Z,4.83
2023-02-02T01:10:23.949Z,4.80
2023-02-02T01:12:54.268Z,4.83
2023-02-02T01:15:24.612Z,4.61
2023-02-02T01:17:54.891Z,4.82
2023-02-02T01:20:28.027Z,4.84
2023-02-02T01:22:58.055Z,4.81
2023-02-02T01:25:28.106Z,4.75
2023-02-02T01:27:58.524Z,4.50
2023-02-02T01:30:29.728Z,4.72
2023-02-02T01:33:00.106Z,4.67
2023-02-02T01:35:33.627Z,4.57
2023-02-02T01:38:04.054Z,4.62
2023-02-02T01:40:34.082Z,4.59
2023-02-02T01:43:04.302Z,4.61
2023-02-02T01:45:34.518Z,4.56
2023-02-02T01:48:05.297Z,4.52
2023-02-02T01:50:38.620Z,4.31
2023-02-02T01:53:11.270Z,4.51
2023-02-02T01:55:44.079Z,4.52
2023-02-02T01:58:18.351Z,4.56
2023-02-02T02:00:48.742Z,4.57
2023-02-02T02:03:22.541Z,4.52
2023-02-02T02:05:59.315Z,4.53
2023-02-02T02:08:33.143Z,4.36
2023-02-02T02:11:03.269Z,4.58
2023-02-02T02:13:50.543Z,4.63
2023-02-02T02:16:30.453Z,4.58
2023-02-02T02:19:13.977Z,4.68
2023-02-02T02:22:20.350Z,4.72
2023-02-02T02:25:41.430Z,4.68
2023-02-02T02:28:41.428Z,4.55
2023-02-02T02:31:38.292Z,4.41
2023-02-02T02:34:15.515Z,4.44
2023-02-02T02:36:52.526Z,4.28
2023-02-02T02:39:28.643Z,4.45
2023-02-02T02:42:03.517Z,4.46
2023-02-02T02:44:36.884Z,4.48
2023-02-02T02:47:07.497Z,4.48
2023-02-02T02:49:45.261Z,4.50
2023-02-02T02:52:16.136Z,4.53
2023-02-02T02:54:52.692Z,4.47
2023-02-02T02:57:41.802Z,4.52
2023-02-02T03:00:25.150Z,4.54
2023-02-02T03:03:06.220Z,4.49
2023-02-02T03:05:51.148Z,4.48
2023-02-02T03:08:27.879Z,4.49
2023-02-02T03:11:02.470Z,4.55
2023-02-02T03:13:34.436Z,4.57
2023-02-02T03:16:04.839Z,4.59
2023-02-02T03:18:36.284Z,4.60
2023-02-02T03:21:09.521Z,4.61
2023-02-02T03:23:39.605Z,4.67
2023-02-02T03:26:10.512Z,4.66
2023-02-02T03:28:40.416Z,4.68
2023-02-02T03:31:11.018Z,4.52
2023-02-02T03:33:41.917Z,4.71
2023-02-02T03:36:14.885Z,4.69
2023-02-02T03:38:44.957Z,4.54
2023-02-02T03:41:15.389Z,4.71
2023-02-02T03:43:50.179Z,4.69
2023-02-02T03:46:20.285Z,4.61
2023-02-02T03:48:50.378Z,4.70
2023-02-02T03:51:23.434Z,4.66
2023-02-02T03:53:53.467Z,4.62
2023-02-02T03:56:23.815Z,4.61
2023-02-02T03:58:53.830Z,4.57
2023-02-02T04:01:30.732Z,4.51
2023-02-02T04:04:01.675Z,4.57
2023-02-02T04:06:34.270Z,4.53
2023-02-02T04:09:04.550Z,4.48
2023-02-02T04:11:34.990Z,4.47
2023-02-02T04:14:05.099Z,4.45
2023-02-02T04:16:37.815Z,4.27
2023-02-02T04:19:08.729Z,4.08
2023-02-02T04:21:41.563Z,4.35
2023-02-02T04:24:15.295Z,4.29
2023-02-02T04:26:46.155Z,4.29
2023-02-02T04:29:16.380Z,4.25
2023-02-02T04:31:46.718Z,4.14
2023-02-02T04:34:16.812Z,3.83
2023-02-02T04:36:49.521Z,4.07
2023-02-02T04:39:19.837Z,3.98
2023-02-02T04:41:49.914Z,3.97
2023-02-02T04:44:19.889Z,3.92
2023-02-02T04:46:49.937Z,3.88
2023-02-02T04:49:20.177Z,3.82
2023-02-02T04:51:53.346Z,3.86
2023-02-02T04:54:23.432Z,3.82
2023-02-02T04:56:54.725Z,3.60
2023-02-02T04:59:24.868Z,3.78
2023-02-02T05:01:54.994Z,3.80
2023-02-02T05:04:25.057Z,3.81
2023-02-02T05:06:57.705Z,3.81
2023-02-02T05:09:28.352Z,3.86
2023-02-02T05:11:58.468Z,3.79
2023-02-02T05:14:28.754Z,3.94
2023-02-02T05:16:58.872Z,3.90
2023-02-02T05:19:30.160Z,3.93
2023-02-02T05:22:02.948Z,3.95
2023-02-02T05:24:33.027Z,3.71
2023-02-02T05:27:03.573Z,3.82
2023-02-02T05:29:34.342Z,3.76
2023-02-02T05:32:04.520Z,3.80
2023-02-02T05:34:34.825Z,3.77
2023-02-02T05:37:08.093Z,3.75
2023-02-02T05:39:38.150Z,3.74
2023-02-02T05:42:08.351Z,3.53
2023-02-02T05:44:38.497Z,3.39
2023-02-02T05:47:09.563Z,3.42
2023-02-02T05:49:40.041Z,3.35
2023-02-02T05:52:18.585Z,3.31
2023-02-02T05:54:48.799Z,3.25
2023-02-02T05:57:19.096Z,3.30
2023-02-02T05:59:49.106Z,3.36
2023-02-02T06:02:19.205Z,3.51
2023-02-02T06:04:49.448Z,3.60
2023-02-02T06:07:22.086Z,3.73
2023-02-02T06:09:52.137Z,3.81
2023-02-02T06:12:22.484Z,3.81
2023-02-02T06:14:52.658Z,3.92
2023-02-02T06:17:23.230Z,4.00
2023-02-02T06:19:54.019Z,4.13
2023-02-02T06:22:27.041Z,4.22
2023-02-02T06:24:57.482Z,4.33
2023-02-02T06:27:28.243Z,4.17
2023-02-02T06:29:58.318Z,4.41
2023-02-02T06:32:28.721Z,4.38
2023-02-02T06:34:58.884Z,3.92
2023-02-02T06:37:31.736Z,3.92
2023-02-02T06:40:01.920Z,3.99
2023-02-02T06:42:32.279Z,3.92
2023-02-02T06:45:02.329Z,3.47
2023-02-02T06:47:32.595Z,3.37
2023-02-02T06:50:02.815Z,3.38
2023-02-02T06:52:35.711Z,3.38
2023-02-02T06:55:06.708Z,3.23
2023-02-02T06:57:36.570Z,3.56
2023-02-02T07:00:07.396Z,3.64
2023-02-02T07:02:37.322Z,3.74
2023-02-02T07:05:08.031Z,3.78
2023-02-02T07:07:40.892Z,3.87
2023-02-02T07:11:12.704Z,4.27
2023-02-02T07:13:02.175Z,4.57
2023-02-02T07:15:35.722Z,4.96
2023-02-02T07:18:06.158Z,4.76
2023-02-02T07:20:38.968Z,5.09
2023-02-02T07:23:11.708Z,5.24
2023-02-02T07:25:43.582Z,5.12
2023-02-02T07:28:14.089Z,4.87
2023-02-02T07:30:44.250Z,4.77
2023-02-02T07:33:14.339Z,4.72
2023-02-02T07:35:44.596Z,4.59
2023-02-02T07:38:17.997Z,4.46
2023-02-02T07:40:49.059Z,4.55
2023-02-02T07:43:19.512Z,4.54
2023-02-02T07:45:49.970Z,4.39
2023-02-02T07:48:20.178Z,4.44
2023-02-02T07:50:50.522Z,4.54
2023-02-02T07:53:23.663Z,4.59
2023-02-02T07:55:53.682Z,4.51
2023-02-02T07:58:23.758Z,4.53
2023-02-02T08:00:53.858Z,4.61
2023-02-02T08:03:23.899Z,4.63
2023-02-02T08:05:54.060Z,4.65
2023-02-02T08:08:26.760Z,4.50
2023-02-02T08:10:57.737Z,4.39
2023-02-02T08:13:27.558Z,4.37
2023-02-02T08:16:00.877Z,4.22
2023-02-02T08:18:30.962Z,4.39
2023-02-02T08:21:02.360Z,4.26
2023-02-02T08:23:36.760Z,4.35
2023-02-02T08:26:12.961Z,4.28
2023-02-02T08:28:44.184Z,4.43
2023-02-02T08:31:17.505Z,4.38
2023-02-02T08:33:48.127Z,4.55
2023-02-02T08:36:19.836Z,4.60
2023-02-02T08:38:53.707Z,4.76
2023-02-02T08:41:27.193Z,4.93
2023-02-02T08:43:57.258Z,4.89
2023-02-02T08:46:28.225Z,5.11
2023-02-02T08:48:58.012Z,5.12
2023-02-02T08:51:28.400Z,5.03
2023-02-02T08:54:01.074Z,5.09
2023-02-02T08:56:31.164Z,5.14
2023-02-02T08:59:03.279Z,5.08
2023-02-02T09:01:34.651Z,5.01
2023-02-02T09:04:07.016Z,5.02
2023-02-02T09:06:38.880Z,5.12
2023-02-02T09:09:13.691Z,5.16
2023-02-02T09:11:44.105Z,5.20
2023-02-02T09:14:15.905Z,5.18
2023-02-02T09:16:46.089Z,5.30
2023-02-02T09:19:16.228Z,5.37
2023-02-02T09:21:46.372Z,5.43
2023-02-02T09:24:19.755Z,5.45
2023-02-02T09:26:50.069Z,5.53
2023-02-02T09:29:21.397Z,5.69
2023-02-02T09:31:51.724Z,5.76
2023-02-02T09:34:22.000Z,5.85
2023-02-02T09:36:52.430Z,5.88
2023-02-02T09:39:25.109Z,5.84
2023-02-02T09:42:29.202Z,5.70
2023-02-02T09:45:10.817Z,5.81
2023-02-02T09:47:56.648Z,5.79
2023-02-02T09:50:45.891Z,5.73
2023-02-02T09:53:30.140Z,5.69
2023-02-02T09:56:07.531Z,5.41
2023-02-02T09:58:43.126Z,5.56
2023-02-02T10:01:16.172Z,5.56
2023-02-02T10:03:58.012Z,5.34
2023-02-02T10:06:36.241Z,5.46
2023-02-02T10:09:26.604Z,5.37
2023-02-02T10:12:07.493Z,5.29
2023-02-02T10:14:46.345Z,5.30
2023-02-02T10:17:32.150Z,5.40
2023-02-02T10:20:09.558Z,5.26
2023-02-02T10:22:39.670Z,5.27
2023-02-02T10:25:15.351Z,5.29
2023-02-02T10:27:59.459Z,5.29
2023-02-02T10:30:39.931Z,5.32
2023-02-02T10:33:17.422Z,5.35
2023-02-02T10:35:55.778Z,5.32
2023-02-02T10:38:36.581Z,5.42
2023-02-02T10:41:15.998Z,5.43
2023-02-02T10:44:11.986Z,5.51
2023-02-02T10:46:46.532Z,5.47
2023-02-02T10:49:25.157Z,5.51
2023-02-02T10:52:00.995Z,5.30
2023-02-02T10:54:57.271Z,5.43
2023-02-02T10:57:50.346Z,5.45
2023-02-02T11:00:29.077Z,5.51
2023-02-02T11:03:00.527Z,5.50
2023-02-02T11:05:44.818Z,5.41
2023-02-02T11:08:17.669Z,5.54
2023-02-02T11:10:48.941Z,5.60
2023-02-02T11:13:30.454Z,5.56
2023-02-02T11:16:41.585Z,5.59
2023-02-02T11:19:34.774Z,5.61
2023-02-02T11:22:06.100Z,5.62
2023-02-02T11:24:44.761Z,5.47
2023-02-02T11:27:18.646Z,5.72
2023-02-02T11:29:51.132Z,5.77
2023-02-02T11:32:30.253Z,5.72
2023-02-02T11:35:33.254Z,5.80
2023-02-02T11:38:12.655Z,5.82
2023-02-02T11:40:46.554Z,5.72
2023-02-02T11:43:22.579Z,5.47
2023-02-02T11:46:02.367Z,5.80
2023-02-02T11:48:39.260Z,5.83
2023-02-02T11:51:11.036Z,5.84
2023-02-02T11:53:49.542Z,5.82
2023-02-02T11:56:25.249Z,5.81
2023-02-02T11:58:59.592Z,5.97
2023-02-02T12:01:31.368Z,6.00
2023-02-02T12:04:06.843Z,6.01
2023-02-02T12:06:40.487Z,6.07
2023-02-02T12:09:16.724Z,6.03
2023-02-02T12:11:59.699Z,6.13
2023-02-02T12:14:37.689Z,6.02
2023-02-02T12:17:23.783Z,5.98
2023-02-02T12:20:07.305Z,6.04
2023-02-02T12:22:58.505Z,6.07
2023-02-02T12:25:46.002Z,6.08
2023-02-02T12:28:28.477Z,6.16
2023-02-02T12:31:06.385Z,6.25
2023-02-02T12:33:43.746Z,6.20
2023-02-02T12:36:27.742Z,6.32
2023-02-02T12:39:13.247Z,6.28
2023-02-02T12:42:07.183Z,6.36
2023-02-02T12:44:51.174Z,6.20
2023-02-02T12:47:28.868Z,6.35
2023-02-02T12:50:13.515Z,6.29
2023-02-02T12:52:58.065Z,6.41
2023-02-02T12:55:39.541Z,6.44
2023-02-02T12:58:21.795Z,6.43
2023-02-02T13:01:13.707Z,6.46
2023-02-02T13:04:16.559Z,6.52
2023-02-02T13:07:05.403Z,6.43
2023-02-02T13:09:48.615Z,6.55
2023-02-02T13:12:22.799Z,6.59
2023-02-02T13:14:57.993Z,6.63
2023-02-02T13:17:32.465Z,6.65
2023-02-02T13:20:06.565Z,6.66
2023-02-02T13:22:40.531Z,6.63
2023-02-02T13:25:23.614Z,6.69
2023-02-02T13:27:54.616Z,6.55
2023-02-02T13:30:34.331Z,6.50
2023-02-02T13:33:08.318Z,6.58
2023-02-02T13:35:45.144Z,6.56
2023-02-02T13:38:21.910Z,6.57
2023-02-02T13:40:57.965Z,6.39
2023-02-02T13:43:38.780Z,6.52
2023-02-02T13:46:32.502Z,6.59
2023-02-02T13:49:13.528Z,6.48
2023-02-02T13:52:01.643Z,6.51
2023-02-02T13:55:13.514Z,6.45
2023-02-02T13:58:19.851Z,6.37
2023-02-02T14:00:53.136Z,6.25
2023-02-02T14:03:33.896Z,6.37
2023-02-02T14:06:13.744Z,6.37
2023-02-02T14:08:50.996Z,6.36
2023-02-02T14:11:25.989Z,6.14
2023-02-02T14:14:13.966Z,6.35
2023-02-02T14:16:53.484Z,6.34
2023-02-02T14:19:52.226Z,6.30
2023-02-02T14:22:38.833Z,6.29
2023-02-02T14:25:41.737Z,6.32
2023-02-02T14:28:14.072Z,6.29
2023-02-02T14:30:46.794Z,6.32
2023-02-02T14:33:47.780Z,6.32
2023-02-02T14:36:20.719Z,6.29
2023-02-02T14:39:03.628Z,6.35
2023-02-02T14:42:01.037Z,6.36
2023-02-02T14:44:31.841Z,6.34
2023-02-02T14:47:04.799Z,6.32
2023-02-02T14:49:38.587Z,6.28
2023-02-02T14:52:23.211Z,6.30
2023-02-02T14:54:53.346Z,6.21
2023-02-02T14:57:28.468Z,6.16
2023-02-02T15:00:01.596Z,6.10
2023-02-02T15:02:39.572Z,5.98
2023-02-02T15:05:41.924Z,6.01
2023-02-02T15:08:23.286Z,5.89
2023-02-02T15:11:25.555Z,5.89
2023-02-02T15:14:15.970Z,5.84
2023-02-02T15:16:47.181Z,5.72
2023-02-02T15:19:28.970Z,5.77
2023-02-02T15:22:02.414Z,5.79
2023-02-02T15:24:36.866Z,5.66
2023-02-02T15:27:09.025Z,5.84
2023-02-02T15:29:45.556Z,5.79
2023-02-02T15:32:20.623Z,5.68
2023-02-02T15:34:55.967Z,5.67
2023-02-02T15:37:32.047Z,5.61
2023-02-02T15:40:05.627Z,5.62
2023-02-02T15:42:55.912Z,5.53
2023-02-02T15:45:35.034Z,5.54
2023-02-02T15:48:12.215Z,5.52
2023-02-02T15:50:48.689Z,5.52
2023-02-02T15:53:23.323Z,5.54
2023-02-02T15:55:53.914Z,5.55
2023-02-02T15:58:30.615Z,5.55
2023-02-02T16:01:04.178Z,5.61
2023-02-02T16:03:41.405Z,5.57
2023-02-02T16:06:14.659Z,5.57
2023-02-02T16:08:45.123Z,5.64
2023-02-02T16:11:18.069Z,5.67
2023-02-02T16:14:01.957Z,5.52
2023-02-02T16:16:35.476Z,5.61
2023-02-02T16:19:15.034Z,5.60
2023-02-02T16:21:53.846Z,5.61
2023-02-02T16:24:29.115Z,5.60
2023-02-02T16:27:02.386Z,5.57
2023-02-02T16:29:33.088Z,5.60
2023-02-02T16:32:03.465Z,5.51
2023-02-02T16:34:49.057Z,5.50
2023-02-02T16:37:28.436Z,5.46
2023-02-02T16:39:59.515Z,5.23
2023-02-02T16:42:31.799Z,5.40
2023-02-02T16:45:03.007Z,5.22
2023-02-02T16:47:41.671Z,5.37
2023-02-02T16:50:29.593Z,5.33
2023-02-02T16:53:05.482Z,5.37
2023-02-02T16:55:50.076Z,5.35
2023-02-02T16:58:24.421Z,5.20
2023-02-02T17:01:14.097Z,5.41
2023-02-02T17:03:52.697Z,5.32
2023-02-02T17:06:41.830Z,5.39
2023-02-02T17:09:34.382Z,5.41
2023-02-02T17:12:09.367Z,5.38
2023-02-02T17:14:54.952Z,5.55
2023-02-02T17:17:25.194Z,5.52
2023-02-02T17:19:55.508Z,5.50
2023-02-02T17:22:28.090Z,5.52
2023-02-02T17:25:02.014Z,5.40
2023-02-02T17:27:34.694Z,5.51
2023-02-02T17:30:07.374Z,5.50
2023-02-02T17:32:37.705Z,5.52
2023-02-02T17:35:16.879Z,5.37
2023-02-02T17:37:47.352Z,5.50
2023-02-02T17:40:21.503Z,5.52
2023-02-02T17:42:53.925Z,5.59
2023-02-02T17:45:26.672Z,5.58
2023-02-02T17:47:56.967Z,5.61
2023-02-02T17:50:27.441Z,5.49
2023-02-02T17:52:57.833Z,5.51
2023-02-02T17:55:33.719Z,5.52
2023-02-02T17:58:03.985Z,5.47
2023-02-02T18:00:34.147Z,5.35
2023-02-02T18:03:13.048Z,5.35
2023-02-02T18:05:43.959Z,5.34
2023-02-02T18:08:15.221Z,5.36
2023-02-02T18:10:48.021Z,5.34
2023-02-02T18:13:19.743Z,5.31
2023-02-02T18:15:50.499Z,5.11
2023-02-02T18:18:20.526Z,5.28
2023-02-02T18:20:53.206Z,5.36
2023-02-02T18:23:24.721Z,5.21
2023-02-02T18:25:57.551Z,5.44
2023-02-02T18:28:27.555Z,5.45
2023-02-02T18:30:57.705Z,5.46
2023-02-02T18:33:28.089Z,5.50
2023-02-02T18:35:58.455Z,5.51
2023-02-02T18:38:28.658Z,5.53
2023-02-02T18:41:03.927Z,5.38
2023-02-02T18:43:34.103Z,5.46
2023-02-02T18:46:06.637Z,5.14
2023-02-02T18:48:36.819Z,5.37
2023-02-02T18:51:08.473Z,5.38
2023-02-02T18:53:38.739Z,5.25
2023-02-02T18:56:13.833Z,5.45
2023-02-02T18:58:44.583Z,5.25
2023-02-02T19:01:16.854Z,5.27
2023-02-02T19:03:51.853Z,5.15
2023-02-02T19:06:35.151Z,5.08
2023-02-02T19:09:10.557Z,5.00
2023-02-02T19:11:48.619Z,5.06
2023-02-02T19:14:20.749Z,5.05
2023-02-02T19:16:52.720Z,5.01
2023-02-02T19:19:29.292Z,5.01
2023-02-02T19:22:01.003Z,5.02
2023-02-02T19:24:42.707Z,5.03
2023-02-02T19:27:20.176Z,5.10
2023-02-02T19:29:52.909Z,5.10
2023-02-02T19:32:25.182Z,5.09
2023-02-02T19:34:57.371Z,5.04
2023-02-02T19:37:29.531Z,5.04
2023-02-02T19:40:17.719Z,5.00
2023-02-02T19:42:54.396Z,4.93
2023-02-02T19:45:28.416Z,4.90
2023-02-02T19:47:59.943Z,5.03
2023-02-02T19:50:32.396Z,5.10
2023-02-02T19:53:06.561Z,4.99
2023-02-02T19:55:39.442Z,5.13
2023-02-02T19:58:19.914Z,5.09
2023-02-02T20:00:51.265Z,5.13
2023-02-02T20:03:23.843Z,5.09
2023-02-02T20:05:55.838Z,5.10
2023-02-02T20:08:30.110Z,5.08
2023-02-02T20:11:03.836Z,5.04
2023-02-02T20:13:46.794Z,5.10
2023-02-02T20:16:21.203Z,5.09
2023-02-02T20:18:53.985Z,4.94
2023-02-02T20:21:31.391Z,4.92
2023-02-02T20:24:01.646Z,4.94
2023-02-02T20:26:37.093Z,4.81
2023-02-02T20:29:20.799Z,4.85
2023-02-02T20:31:55.837Z,4.81
2023-02-02T20:34:29.973Z,4.76
2023-02-02T20:37:02.820Z,4.74
2023-02-02T20:39:37.377Z,4.71
2023-02-02T20:42:07.935Z,4.73
2023-02-02T20:44:40.609Z,4.66
2023-02-02T20:47:10.971Z,4.78
2023-02-02T20:49:41.658Z,4.62
2023-02-02T20:52:18.360Z,4.70
2023-02-02T20:54:48.408Z,4.73
2023-02-02T20:57:18.903Z,4.64
2023-02-02T20:59:57.918Z,4.61
2023-02-02T21:02:29.902Z,4.73
2023-02-02T21:05:01.500Z,4.71
2023-02-02T21:07:32.680Z,4.43
2023-02-02T21:10:02.697Z,4.76
2023-02-02T21:12:33.166Z,4.82
2023-02-02T21:15:06.675Z,4.77
2023-02-02T21:17:36.710Z,4.73
2023-02-02T21:20:07.131Z,4.84
2023-02-02T21:22:37.361Z,4.82
2023-02-02T21:25:07.741Z,4.76
2023-02-02T21:27:41.208Z,4.73
2023-02-02T21:30:16.115Z,4.80
2023-02-02T21:32:46.098Z,4.80
2023-02-02T21:35:16.088Z,4.68
2023-02-02T21:37:50.578Z,4.68
2023-02-02T21:40:28.972Z,4.64
2023-02-02T21:43:01.867Z,4.54
2023-02-02T21:45:38.881Z,4.51
2023-02-02T21:48:10.751Z,4.49
2023-02-02T21:50:44.546Z,4.49
2023-02-02T21:53:22.009Z,4.51
2023-02-02T21:55:55.974Z,4.47
2023-02-02T21:58:28.441Z,4.47
2023-02-02T22:01:05.552Z,4.41
2023-02-02T22:03:38.062Z,4.28
2023-02-02T22:06:36.258Z,4.27
2023-02-02T22:09:18.343Z,4.22
2023-02-02T22:11:52.210Z,4.20
2023-02-02T22:14:25.176Z,4.15
2023-02-02T22:17:00.831Z,4.10
2023-02-02T22:19:36.747Z,4.06
2023-02-02T22:22:16.988Z,3.89
2023-02-02T22:24:49.309Z,4.05
2023-02-02T22:27:26.117Z,3.95
2023-02-02T22:30:00.487Z,3.81
2023-02-02T22:32:33.328Z,3.84
2023-02-02T22:35:03.317Z,3.82
2023-02-02T22:37:33.545Z,3.59
2023-02-02T22:40:03.610Z,3.83
2023-02-02T22:42:33.673Z,3.80
2023-02-02T22:45:03.673Z,3.74
2023-02-02T22:47:36.329Z,3.83
2023-02-02T22:50:06.644Z,3.82
2023-02-02T22:52:36.725Z,3.84
2023-02-02T22:55:06.927Z,3.63
2023-02-02T22:57:37.256Z,3.74
2023-02-02T23:00:10.680Z,3.75
2023-02-02T23:02:44.335Z,3.71
2023-02-02T23:05:16.860Z,3.65
2023-02-02T23:07:48.972Z,3.60
2023-02-02T23:10:21.113Z,3.57
2023-02-02T23:12:53.669Z,3.48
2023-02-02T23:15:24.042Z,3.47
2023-02-02T23:17:57.416Z,3.39
2023-02-02T23:20:28.093Z,3.30
2023-02-02T23:22:58.056Z,3.31
2023-02-02T23:25:28.341Z,3.21
2023-02-02T23:27:58.482Z,3.08
2023-02-02T23:30:28.841Z,3.05
2023-02-02T23:33:01.573Z,3.01
2023-02-02T23:35:31.622Z,3.03
2023-02-02T23:38:01.680Z,3.00
2023-02-02T23:40:31.849Z,3.08
2023-02-02T23:43:01.939Z,3.12
2023-02-02T23:45:32.263Z,3.10
2023-02-02T23:48:05.025Z,3.10
2023-02-02T23:50:38.062Z,3.09
2023-02-02T23:53:08.500Z,3.06
2023-02-02T23:55:39.335Z,3.10
2023-02-02T23:58:09.606Z,3.05
